sensor_id;sensor_type;location;lat;lon;timestamp;P1;durP1;ratioP1;P2;durP2;ratioP2
61096;SDS011;46977;50.936;6.908;2022-12-18T00:01:42;13.63;;;7.25;;
61096;SDS011;46977;50.936;6.908;2022-12-18T00:04:45;14.05;;;7.18;;
61096;SDS011;46977;50.936;6.908;2022-12-18T00:07:47;10.18;;;6.45;;
61096;SDS011;46977;50.936;6.908;2022-12-18T00:10:49;11.00;;;6.10;;
61096;SDS011;46977;50.936;6.908;2022-12-18T00:13:54;9.10;;;5.22;;
61096;SDS011;46977;50.936;6.908;2022-12-18T00:16:58;8.25;;;5.88;;
61096;SDS011;46977;50.936;6.908;2022-12-18T00:20:02;9.52;;;6.45;;
61096;SDS011;46977;50.936;6.908;2022-12-18T00:23:05;9.55;;;5.78;;
61096;SDS011;46977;50.936;6.908;2022-12-18T00:26:11;11.00;;;6.82;;
61096;SDS011;46977;50.936;6.908;2022-12-18T00:29:18;8.75;;;5.45;;
61096;SDS011;46977;50.936;6.908;2022-12-18T00:32:21;10.38;;;7.00;;
61096;SDS011;46977;50.936;6.908;2022-12-18T00:35:24;11.65;;;6.20;;
61096;SDS011;46977;50.936;6.908;2022-12-18T00:38:27;7.70;;;4.97;;
61096;SDS011;46977;50.936;6.908;2022-12-18T00:41:29;13.15;;;5.93;;
61096;SDS011;46977;50.936;6.908;2022-12-18T00:44:50;13.20;;;5.90;;
61096;SDS011;46977;50.936;6.908;2022-12-18T00:47:54;12.23;;;6.18;;
61096;SDS011;46977;50.936;6.908;2022-12-18T00:50:57;10.70;;;5.82;;
61096;SDS011;46977;50.936;6.908;2022-12-18T00:54:00;7.43;;;4.97;;
61096;SDS011;46977;50.936;6.908;2022-12-18T00:57:02;12.75;;;7.55;;
61096;SDS011;46977;50.936;6.908;2022-12-18T01:00:07;11.32;;;6.22;;
61096;SDS011;46977;50.936;6.908;2022-12-18T01:03:13;12.35;;;6.13;;
61096;SDS011;46977;50.936;6.908;2022-12-18T01:06:18;12.15;;;5.78;;
61096;SDS011;46977;50.936;6.908;2022-12-18T01:09:21;13.93;;;6.65;;
61096;SDS011;46977;50.936;6.908;2022-12-18T01:12:25;9.68;;;5.43;;
61096;SDS011;46977;50.936;6.908;2022-12-18T01:15:28;11.65;;;5.30;;
61096;SDS011;46977;50.936;6.908;2022-12-18T01:18:31;12.95;;;6.53;;
61096;SDS011;46977;50.936;6.908;2022-12-18T01:21:34;10.63;;;6.10;;
61096;SDS011;46977;50.936;6.908;2022-12-18T01:24:38;9.98;;;5.53;;
61096;SDS011;46977;50.936;6.908;2022-12-18T01:27:40;12.38;;;7.47;;
61096;SDS011;46977;50.936;6.908;2022-12-18T01:30:43;11.93;;;6.20;;
61096;SDS011;46977;50.936;6.908;2022-12-18T01:33:46;11.65;;;7.03;;
61096;SDS011;46977;50.936;6.908;2022-12-18T01:36:50;11.63;;;5.55;;
61096;SDS011;46977;50.936;6.908;2022-12-18T01:39:54;14.05;;;6.85;;
61096;SDS011;46977;50.936;6.908;2022-12-18T01:42:56;5.50;;;3.80;;
61096;SDS011;46977;50.936;6.908;2022-12-18T01:45:59;7.57;;;5.45;;
61096;SDS011;46977;50.936;6.908;2022-12-18T01:49:03;6.97;;;4.47;;
61096;SDS011;46977;50.936;6.908;2022-12-18T01:52:05;14.40;;;7.75;;
61096;SDS011;46977;50.936;6.908;2022-12-18T01:55:08;10.38;;;6.25;;
61096;SDS011;46977;50.936;6.908;2022-12-18T01:58:12;9.85;;;6.15;;
61096;SDS011;46977;50.936;6.908;2022-12-18T02:01:15;8.57;;;4.78;;
61096;SDS011;46977;50.936;6.908;2022-12-18T02:04:21;10.43;;;6.47;;
61096;SDS011;46977;50.936;6.908;2022-12-18T02:07:25;12.68;;;6.10;;
61096;SDS011;46977;50.936;6.908;2022-12-18T02:10:37;9.30;;;6.40;;
61096;SDS011;46977;50.936;6.908;2022-12-18T02:13:45;13.25;;;6.55;;
61096;SDS011;46977;50.936;6.908;2022-12-18T02:16:50;14.30;;;7.43;;
61096;SDS011;46977;50.936;6.908;2022-12-18T02:20:01;11.65;;;6.10;;
61096;SDS011;46977;50.936;6.908;2022-12-18T02:23:12;10.00;;;5.80;;
61096;SDS011;46977;50.936;6.908;2022-12-18T02:26:25;10.73;;;6.65;;
61096;SDS011;46977;50.936;6.908;2022-12-18T02:29:31;10.68;;;6.30;;
61096;SDS011;46977;50.936;6.908;2022-12-18T02:32:37;6.65;;;4.45;;
61096;SDS011;46977;50.936;6.908;2022-12-18T02:35:42;13.50;;;6.25;;
61096;SDS011;46977;50.936;6.908;2022-12-18T02:38:47;9.30;;;5.75;;
61096;SDS011;46977;50.936;6.908;2022-12-18T02:41:52;9.85;;;5.50;;
61096;SDS011;46977;50.936;6.908;2022-12-18T02:44:58;6.80;;;4.47;;
61096;SDS011;46977;50.936;6.908;2022-12-18T02:48:00;10.50;;;6.35;;
61096;SDS011;46977;50.936;6.908;2022-12-18T02:51:12;9.50;;;5.90;;
61096;SDS011;46977;50.936;6.908;2022-12-18T02:54:33;10.98;;;6.38;;
61096;SDS011;46977;50.936;6.908;2022-12-18T02:57:44;7.30;;;4.18;;
61096;SDS011;46977;50.936;6.908;2022-12-18T03:00:51;10.95;;;6.55;;
61096;SDS011;46977;50.936;6.908;2022-12-18T03:03:56;10.30;;;6.10;;
61096;SDS011;46977;50.936;6.908;2022-12-18T03:07:02;13.70;;;6.47;;
61096;SDS011;46977;50.936;6.908;2022-12-18T03:10:11;8.77;;;4.85;;
61096;SDS011;46977;50.936;6.908;2022-12-18T03:13:19;9.23;;;5.93;;
61096;SDS011;46977;50.936;6.908;2022-12-18T03:16:26;10.82;;;5.95;;
61096;SDS011;46977;50.936;6.908;2022-12-18T03:19:31;7.80;;;6.35;;
61096;SDS011;46977;50.936;6.908;2022-12-18T03:22:35;8.57;;;5.32;;
61096;SDS011;46977;50.936;6.908;2022-12-18T03:25:40;10.13;;;4.88;;
61096;SDS011;46977;50.936;6.908;2022-12-18T03:28:47;8.52;;;5.03;;
61096;SDS011;46977;50.936;6.908;2022-12-18T03:31:54;12.50;;;6.07;;
61096;SDS011;46977;50.936;6.908;2022-12-18T03:35:02;11.70;;;6.25;;
61096;SDS011;46977;50.936;6.908;2022-12-18T03:38:10;9.13;;;5.93;;
61096;SDS011;46977;50.936;6.908;2022-12-18T03:41:19;5.88;;;4.78;;
61096;SDS011;46977;50.936;6.908;2022-12-18T03:44:43;8.80;;;5.32;;
61096;SDS011;46977;50.936;6.908;2022-12-18T03:47:50;9.77;;;5.70;;
61096;SDS011;46977;50.936;6.908;2022-12-18T03:51:01;10.13;;;6.00;;
61096;SDS011;46977;50.936;6.908;2022-12-18T03:54:04;9.98;;;5.30;;
61096;SDS011;46977;50.936;6.908;2022-12-18T03:57:15;10.57;;;7.25;;
61096;SDS011;46977;50.936;6.908;2022-12-18T04:00:20;9.80;;;5.32;;
61096;SDS011;46977;50.936;6.908;2022-12-18T04:03:29;10.77;;;5.88;;
61096;SDS011;46977;50.936;6.908;2022-12-18T04:06:34;10.85;;;6.50;;
61096;SDS011;46977;50.936;6.908;2022-12-18T04:09:36;7.30;;;5.70;;
61096;SDS011;46977;50.936;6.908;2022-12-18T04:12:42;9.43;;;6.25;;
61096;SDS011;46977;50.936;6.908;2022-12-18T04:15:47;9.07;;;5.85;;
61096;SDS011;46977;50.936;6.908;2022-12-18T04:18:51;12.13;;;7.03;;
61096;SDS011;46977;50.936;6.908;2022-12-18T04:21:55;8.15;;;5.07;;
61096;SDS011;46977;50.936;6.908;2022-12-18T04:24:57;8.57;;;5.63;;
61096;SDS011;46977;50.936;6.908;2022-12-18T04:28:07;10.05;;;6.78;;
61096;SDS011;46977;50.936;6.908;2022-12-18T04:31:13;11.77;;;7.43;;
61096;SDS011;46977;50.936;6.908;2022-12-18T04:34:16;13.40;;;6.93;;
61096;SDS011;46977;50.936;6.908;2022-12-18T04:37:24;10.48;;;6.30;;
61096;SDS011;46977;50.936;6.908;2022-12-18T04:40:26;10.20;;;6.03;;
61096;SDS011;46977;50.936;6.908;2022-12-18T04:43:32;12.40;;;7.90;;
61096;SDS011;46977;50.936;6.908;2022-12-18T04:46:36;7.25;;;4.05;;
61096;SDS011;46977;50.936;6.908;2022-12-18T04:49:38;11.93;;;7.18;;
61096;SDS011;46977;50.936;6.908;2022-12-18T04:52:40;10.75;;;6.47;;
61096;SDS011;46977;50.936;6.908;2022-12-18T04:55:43;11.77;;;6.47;;
61096;SDS011;46977;50.936;6.908;2022-12-18T04:58:45;12.77;;;7.10;;
61096;SDS011;46977;50.936;6.908;2022-12-18T05:01:49;13.95;;;7.22;;
61096;SDS011;46977;50.936;6.908;2022-12-18T05:04:51;10.43;;;6.20;;
61096;SDS011;46977;50.936;6.908;2022-12-18T05:07:54;16.00;;;7.72;;
61096;SDS011;46977;50.936;6.908;2022-12-18T05:10:59;12.60;;;6.50;;
61096;SDS011;46977;50.936;6.908;2022-12-18T05:14:01;10.43;;;5.75;;
61096;SDS011;46977;50.936;6.908;2022-12-18T05:17:05;12.13;;;8.02;;
61096;SDS011;46977;50.936;6.908;2022-12-18T05:20:08;10.23;;;6.65;;
61096;SDS011;46977;50.936;6.908;2022-12-18T05:23:11;10.25;;;6.05;;
61096;SDS011;46977;50.936;6.908;2022-12-18T05:26:14;12.50;;;8.60;;
61096;SDS011;46977;50.936;6.908;2022-12-18T05:29:17;10.38;;;4.55;;
61096;SDS011;46977;50.936;6.908;2022-12-18T05:32:21;12.65;;;7.05;;
61096;SDS011;46977;50.936;6.908;2022-12-18T05:35:24;11.00;;;5.95;;
61096;SDS011;46977;50.936;6.908;2022-12-18T05:38:26;13.13;;;7.82;;
61096;SDS011;46977;50.936;6.908;2022-12-18T05:41:29;8.50;;;5.75;;
61096;SDS011;46977;50.936;6.908;2022-12-18T05:44:31;10.98;;;6.55;;
61096;SDS011;46977;50.936;6.908;2022-12-18T05:47:37;10.02;;;6.13;;
61096;SDS011;46977;50.936;6.908;2022-12-18T05:50:41;8.65;;;5.75;;
61096;SDS011;46977;50.936;6.908;2022-12-18T05:53:45;9.57;;;6.15;;
61096;SDS011;46977;50.936;6.908;2022-12-18T05:56:47;13.63;;;7.72;;
61096;SDS011;46977;50.936;6.908;2022-12-18T05:59:50;13.60;;;6.82;;
61096;SDS011;46977;50.936;6.908;2022-12-18T06:02:54;11.57;;;8.18;;
61096;SDS011;46977;50.936;6.908;2022-12-18T06:05:56;10.25;;;6.57;;
61096;SDS011;46977;50.936;6.908;2022-12-18T06:08:59;11.63;;;6.85;;
61096;SDS011;46977;50.936;6.908;2022-12-18T06:12:03;12.60;;;6.72;;
61096;SDS011;46977;50.936;6.908;2022-12-18T06:15:07;12.55;;;6.97;;
61096;SDS011;46977;50.936;6.908;2022-12-18T06:18:11;10.52;;;7.07;;
61096;SDS011;46977;50.936;6.908;2022-12-18T06:21:13;12.00;;;7.18;;
61096;SDS011;46977;50.936;6.908;2022-12-18T06:24:15;12.25;;;6.72;;
61096;SDS011;46977;50.936;6.908;2022-12-18T06:27:18;8.73;;;5.18;;
61096;SDS011;46977;50.936;6.908;2022-12-18T06:30:21;12.65;;;7.13;;
61096;SDS011;46977;50.936;6.908;2022-12-18T06:33:25;12.60;;;6.75;;
61096;SDS011;46977;50.936;6.908;2022-12-18T06:36:29;10.77;;;7.00;;
61096;SDS011;46977;50.936;6.908;2022-12-18T06:39:32;9.60;;;5.63;;
61096;SDS011;46977;50.936;6.908;2022-12-18T06:42:34;11.65;;;7.32;;
61096;SDS011;46977;50.936;6.908;2022-12-18T06:45:37;11.32;;;6.68;;
61096;SDS011;46977;50.936;6.908;2022-12-18T06:48:40;12.50;;;7.22;;
61096;SDS011;46977;50.936;6.908;2022-12-18T06:51:43;14.20;;;8.18;;
61096;SDS011;46977;50.936;6.908;2022-12-18T06:54:46;10.60;;;6.43;;
61096;SDS011;46977;50.936;6.908;2022-12-18T06:57:48;10.75;;;7.72;;
61096;SDS011;46977;50.936;6.908;2022-12-18T07:00:51;12.18;;;7.07;;
61096;SDS011;46977;50.936;6.908;2022-12-18T07:03:56;10.50;;;7.50;;
61096;SDS011;46977;50.936;6.908;2022-12-18T07:06:59;13.45;;;8.95;;
61096;SDS011;46977;50.936;6.908;2022-12-18T07:10:01;11.30;;;5.70;;
61096;SDS011;46977;50.936;6.908;2022-12-18T07:13:03;8.98;;;5.63;;
61096;SDS011;46977;50.936;6.908;2022-12-18T07:16:06;12.55;;;7.07;;
61096;SDS011;46977;50.936;6.908;2022-12-18T07:19:20;11.57;;;7.63;;
61096;SDS011;46977;50.936;6.908;2022-12-18T07:22:24;10.98;;;5.70;;
61096;SDS011;46977;50.936;6.908;2022-12-18T07:25:27;7.85;;;5.50;;
61096;SDS011;46977;50.936;6.908;2022-12-18T07:28:29;13.48;;;7.97;;
61096;SDS011;46977;50.936;6.908;2022-12-18T07:31:32;11.48;;;6.72;;
61096;SDS011;46977;50.936;6.908;2022-12-18T07:34:36;12.77;;;6.72;;
61096;SDS011;46977;50.936;6.908;2022-12-18T07:37:38;12.13;;;6.57;;
61096;SDS011;46977;50.936;6.908;2022-12-18T07:40:40;12.15;;;6.18;;
61096;SDS011;46977;50.936;6.908;2022-12-18T07:43:43;11.57;;;7.97;;
61096;SDS011;46977;50.936;6.908;2022-12-18T07:46:45;13.45;;;7.72;;
61096;SDS011;46977;50.936;6.908;2022-12-18T07:49:49;12.82;;;6.35;;
61096;SDS011;46977;50.936;6.908;2022-12-18T07:52:51;10.52;;;6.13;;
61096;SDS011;46977;50.936;6.908;2022-12-18T07:55:55;10.52;;;6.85;;
61096;SDS011;46977;50.936;6.908;2022-12-18T07:59:17;11.70;;;7.32;;
61096;SDS011;46977;50.936;6.908;2022-12-18T08:02:20;14.43;;;6.90;;
61096;SDS011;46977;50.936;6.908;2022-12-18T08:05:24;5.78;;;4.35;;
61096;SDS011;46977;50.936;6.908;2022-12-18T08:08:27;9.15;;;6.53;;
61096;SDS011;46977;50.936;6.908;2022-12-18T08:11:29;9.10;;;6.20;;
61096;SDS011;46977;50.936;6.908;2022-12-18T08:14:31;10.07;;;7.32;;
61096;SDS011;46977;50.936;6.908;2022-12-18T08:17:34;13.15;;;6.75;;
61096;SDS011;46977;50.936;6.908;2022-12-18T08:20:37;10.88;;;6.65;;
61096;SDS011;46977;50.936;6.908;2022-12-18T08:23:40;7.78;;;6.07;;
61096;SDS011;46977;50.936;6.908;2022-12-18T08:26:44;8.75;;;5.80;;
61096;SDS011;46977;50.936;6.908;2022-12-18T08:30:07;9.60;;;5.32;;
61096;SDS011;46977;50.936;6.908;2022-12-18T08:33:11;10.88;;;6.32;;
61096;SDS011;46977;50.936;6.908;2022-12-18T08:36:14;6.60;;;4.65;;
61096;SDS011;46977;50.936;6.908;2022-12-18T08:39:17;7.18;;;5.53;;
61096;SDS011;46977;50.936;6.908;2022-12-18T08:42:19;10.20;;;6.35;;
61096;SDS011;46977;50.936;6.908;2022-12-18T08:45:42;8.90;;;5.78;;
61096;SDS011;46977;50.936;6.908;2022-12-18T08:48:44;10.80;;;6.95;;
61096;SDS011;46977;50.936;6.908;2022-12-18T08:51:48;8.30;;;6.40;;
61096;SDS011;46977;50.936;6.908;2022-12-18T08:54:50;9.57;;;7.18;;
61096;SDS011;46977;50.936;6.908;2022-12-18T08:57:53;9.52;;;6.47;;
61096;SDS011;46977;50.936;6.908;2022-12-18T09:00:59;8.95;;;6.68;;
61096;SDS011;46977;50.936;6.908;2022-12-18T09:04:02;6.72;;;5.28;;
61096;SDS011;46977;50.936;6.908;2022-12-18T09:07:08;8.57;;;6.20;;
61096;SDS011;46977;50.936;6.908;2022-12-18T09:10:10;9.23;;;5.25;;
61096;SDS011;46977;50.936;6.908;2022-12-18T09:13:13;8.85;;;5.88;;
61096;SDS011;46977;50.936;6.908;2022-12-18T09:16:17;6.10;;;5.18;;
61096;SDS011;46977;50.936;6.908;2022-12-18T09:19:20;7.40;;;5.20;;
61096;SDS011;46977;50.936;6.908;2022-12-18T09:22:24;7.97;;;6.20;;
61096;SDS011;46977;50.936;6.908;2022-12-18T09:25:26;8.60;;;6.35;;
61096;SDS011;46977;50.936;6.908;2022-12-18T09:28:33;8.40;;;6.05;;
61096;SDS011;46977;50.936;6.908;2022-12-18T09:31:36;9.07;;;7.88;;
61096;SDS011;46977;50.936;6.908;2022-12-18T09:34:39;5.70;;;4.55;;
61096;SDS011;46977;50.936;6.908;2022-12-18T09:37:43;10.00;;;6.47;;
61096;SDS011;46977;50.936;6.908;2022-12-18T09:40:46;9.57;;;6.32;;
61096;SDS011;46977;50.936;6.908;2022-12-18T09:43:50;7.75;;;5.47;;
61096;SDS011;46977;50.936;6.908;2022-12-18T09:46:58;7.47;;;5.72;;
61096;SDS011;46977;50.936;6.908;2022-12-18T09:50:05;7.20;;;5.72;;
61096;SDS011;46977;50.936;6.908;2022-12-18T09:53:21;8.10;;;6.03;;
61096;SDS011;46977;50.936;6.908;2022-12-18T09:56:28;8.32;;;4.68;;
61096;SDS011;46977;50.936;6.908;2022-12-18T09:59:35;7.60;;;5.47;;
61096;SDS011;46977;50.936;6.908;2022-12-18T10:02:39;9.15;;;5.68;;
61096;SDS011;46977;50.936;6.908;2022-12-18T10:05:43;9.02;;;5.45;;
61096;SDS011;46977;50.936;6.908;2022-12-18T10:08:55;7.95;;;6.38;;
61096;SDS011;46977;50.936;6.908;2022-12-18T10:12:05;9.30;;;6.45;;
61096;SDS011;46977;50.936;6.908;2022-12-18T10:15:13;9.40;;;6.05;;
61096;SDS011;46977;50.936;6.908;2022-12-18T10:18:27;8.18;;;5.38;;
61096;SDS011;46977;50.936;6.908;2022-12-18T10:21:38;7.20;;;5.70;;
61096;SDS011;46977;50.936;6.908;2022-12-18T10:24:48;7.32;;;5.90;;
61096;SDS011;46977;50.936;6.908;2022-12-18T10:28:00;10.73;;;6.53;;
61096;SDS011;46977;50.936;6.908;2022-12-18T10:31:12;8.93;;;5.60;;
61096;SDS011;46977;50.936;6.908;2022-12-18T10:34:20;7.65;;;6.15;;
61096;SDS011;46977;50.936;6.908;2022-12-18T10:37:23;11.52;;;7.22;;
61096;SDS011;46977;50.936;6.908;2022-12-18T10:40:47;9.02;;;5.80;;
61096;SDS011;46977;50.936;6.908;2022-12-18T10:44:12;6.27;;;4.20;;
61096;SDS011;46977;50.936;6.908;2022-12-18T10:47:19;12.20;;;5.47;;
61096;SDS011;46977;50.936;6.908;2022-12-18T10:50:23;6.47;;;5.00;;
61096;SDS011;46977;50.936;6.908;2022-12-18T10:53:51;10.32;;;5.80;;
61096;SDS011;46977;50.936;6.908;2022-12-18T10:57:11;8.48;;;5.80;;
61096;SDS011;46977;50.936;6.908;2022-12-18T11:00:23;9.68;;;5.63;;
61096;SDS011;46977;50.936;6.908;2022-12-18T11:03:32;6.30;;;4.78;;
61096;SDS011;46977;50.936;6.908;2022-12-18T11:06:54;10.40;;;6.57;;
61096;SDS011;46977;50.936;6.908;2022-12-18T11:10:00;7.90;;;4.82;;
61096;SDS011;46977;50.936;6.908;2022-12-18T11:13:15;6.93;;;4.38;;
61096;SDS011;46977;50.936;6.908;2022-12-18T11:16:42;7.75;;;5.05;;
61096;SDS011;46977;50.936;6.908;2022-12-18T11:23:37;9.82;;;5.65;;
61096;SDS011;46977;50.936;6.908;2022-12-18T11:26:51;8.18;;;4.82;;
61096;SDS011;46977;50.936;6.908;2022-12-18T11:30:09;9.25;;;5.43;;
61096;SDS011;46977;50.936;6.908;2022-12-18T11:33:19;9.77;;;5.60;;
61096;SDS011;46977;50.936;6.908;2022-12-18T11:36:36;11.30;;;6.72;;
61096;SDS011;46977;50.936;6.908;2022-12-18T11:39:44;8.75;;;5.47;;
61096;SDS011;46977;50.936;6.908;2022-12-18T11:42:52;8.68;;;6.90;;
61096;SDS011;46977;50.936;6.908;2022-12-18T11:46:05;10.48;;;6.30;;
61096;SDS011;46977;50.936;6.908;2022-12-18T11:49:20;9.30;;;5.85;;
61096;SDS011;46977;50.936;6.908;2022-12-18T11:52:35;10.15;;;5.85;;
61096;SDS011;46977;50.936;6.908;2022-12-18T11:55:47;12.10;;;7.57;;
61096;SDS011;46977;50.936;6.908;2022-12-18T11:58:55;9.85;;;6.97;;
61096;SDS011;46977;50.936;6.908;2022-12-18T12:02:21;8.68;;;5.95;;
61096;SDS011;46977;50.936;6.908;2022-12-18T12:05:46;11.82;;;6.55;;
61096;SDS011;46977;50.936;6.908;2022-12-18T12:09:11;10.48;;;6.65;;
61096;SDS011;46977;50.936;6.908;2022-12-18T12:12:27;9.20;;;6.82;;
61096;SDS011;46977;50.936;6.908;2022-12-18T12:16:00;10.07;;;6.25;;
61096;SDS011;46977;50.936;6.908;2022-12-18T12:19:20;8.25;;;5.68;;
61096;SDS011;46977;50.936;6.908;2022-12-18T12:22:38;8.52;;;6.07;;
61096;SDS011;46977;50.936;6.908;2022-12-18T12:25:49;9.30;;;6.85;;
61096;SDS011;46977;50.936;6.908;2022-12-18T12:29:04;9.63;;;6.00;;
61096;SDS011;46977;50.936;6.908;2022-12-18T12:32:30;10.38;;;7.97;;
61096;SDS011;46977;50.936;6.908;2022-12-18T12:35:44;6.90;;;5.28;;
61096;SDS011;46977;50.936;6.908;2022-12-18T12:38:53;10.20;;;7.20;;
61096;SDS011;46977;50.936;6.908;2022-12-18T12:41:58;8.43;;;6.43;;
61096;SDS011;46977;50.936;6.908;2022-12-18T12:45:28;9.68;;;6.38;;
61096;SDS011;46977;50.936;6.908;2022-12-18T12:48:43;9.95;;;7.95;;
61096;SDS011;46977;50.936;6.908;2022-12-18T12:51:56;8.60;;;6.07;;
61096;SDS011;46977;50.936;6.908;2022-12-18T12:55:04;8.95;;;6.00;;
61096;SDS011;46977;50.936;6.908;2022-12-18T12:58:18;10.23;;;7.00;;
61096;SDS011;46977;50.936;6.908;2022-12-18T13:01:28;10.35;;;6.65;;
61096;SDS011;46977;50.936;6.908;2022-12-18T13:04:42;5.95;;;4.20;;
61096;SDS011;46977;50.936;6.908;2022-12-18T13:07:56;11.40;;;7.57;;
61096;SDS011;46977;50.936;6.908;2022-12-18T13:11:11;9.57;;;6.70;;
61096;SDS011;46977;50.936;6.908;2022-12-18T13:15:11;9.48;;;6.45;;
61096;SDS011;46977;50.936;6.908;2022-12-18T13:18:20;10.63;;;6.32;;
61096;SDS011;46977;50.936;6.908;2022-12-18T13:21:27;12.38;;;7.60;;
61096;SDS011;46977;50.936;6.908;2022-12-18T13:24:34;11.63;;;7.05;;
61096;SDS011;46977;50.936;6.908;2022-12-18T13:27:46;13.90;;;7.43;;
61096;SDS011;46977;50.936;6.908;2022-12-18T13:31:00;9.70;;;6.70;;
61096;SDS011;46977;50.936;6.908;2022-12-18T13:34:13;9.60;;;6.32;;
61096;SDS011;46977;50.936;6.908;2022-12-18T13:37:42;10.52;;;7.45;;
61096;SDS011;46977;50.936;6.908;2022-12-18T13:40:55;9.85;;;7.47;;
61096;SDS011;46977;50.936;6.908;2022-12-18T13:44:10;10.18;;;8.13;;
61096;SDS011;46977;50.936;6.908;2022-12-18T13:47:25;10.13;;;7.72;;
61096;SDS011;46977;50.936;6.908;2022-12-18T13:50:28;8.88;;;6.03;;
61096;SDS011;46977;50.936;6.908;2022-12-18T13:53:38;10.27;;;7.32;;
61096;SDS011;46977;50.936;6.908;2022-12-18T13:56:50;12.02;;;8.15;;
61096;SDS011;46977;50.936;6.908;2022-12-18T13:59:52;9.25;;;7.10;;
61096;SDS011;46977;50.936;6.908;2022-12-18T14:02:58;10.50;;;7.32;;
61096;SDS011;46977;50.936;6.908;2022-12-18T14:06:02;9.93;;;7.18;;
61096;SDS011;46977;50.936;6.908;2022-12-18T14:09:11;11.20;;;7.13;;
61096;SDS011;46977;50.936;6.908;2022-12-18T14:12:24;10.60;;;7.60;;
61096;SDS011;46977;50.936;6.908;2022-12-18T14:15:49;12.77;;;7.65;;
61096;SDS011;46977;50.936;6.908;2022-12-18T14:18:55;10.45;;;7.20;;
61096;SDS011;46977;50.936;6.908;2022-12-18T14:22:17;9.30;;;6.75;;
61096;SDS011;46977;50.936;6.908;2022-12-18T14:25:22;10.15;;;6.45;;
61096;SDS011;46977;50.936;6.908;2022-12-18T14:28:26;11.93;;;8.75;;
61096;SDS011;46977;50.936;6.908;2022-12-18T14:31:29;13.25;;;7.93;;
61096;SDS011;46977;50.936;6.908;2022-12-18T14:34:33;15.70;;;8.80;;
61096;SDS011;46977;50.936;6.908;2022-12-18T14:37:35;11.18;;;8.35;;
61096;SDS011;46977;50.936;6.908;2022-12-18T14:40:38;10.82;;;7.60;;
61096;SDS011;46977;50.936;6.908;2022-12-18T14:43:46;11.68;;;8.82;;
61096;SDS011;46977;50.936;6.908;2022-12-18T14:46:50;10.95;;;7.72;;
61096;SDS011;46977;50.936;6.908;2022-12-18T14:49:52;10.52;;;7.70;;
61096;SDS011;46977;50.936;6.908;2022-12-18T14:53:01;13.23;;;7.70;;
61096;SDS011;46977;50.936;6.908;2022-12-18T14:56:10;13.30;;;8.70;;
61096;SDS011;46977;50.936;6.908;2022-12-18T14:59:21;10.88;;;7.50;;
61096;SDS011;46977;50.936;6.908;2022-12-18T15:02:26;9.52;;;8.07;;
61096;SDS011;46977;50.936;6.908;2022-12-18T15:05:30;11.95;;;7.15;;
61096;SDS011;46977;50.936;6.908;2022-12-18T15:08:34;9.85;;;7.47;;
61096;SDS011;46977;50.936;6.908;2022-12-18T15:11:45;14.45;;;8.93;;
61096;SDS011;46977;50.936;6.908;2022-12-18T15:14:52;11.85;;;7.18;;
61096;SDS011;46977;50.936;6.908;2022-12-18T15:17:58;10.27;;;7.60;;
61096;SDS011;46977;50.936;6.908;2022-12-18T15:21:07;10.43;;;7.60;;
61096;SDS011;46977;50.936;6.908;2022-12-18T15:24:15;9.85;;;7.63;;
61096;SDS011;46977;50.936;6.908;2022-12-18T15:27:29;13.30;;;8.30;;
61096;SDS011;46977;50.936;6.908;2022-12-18T15:30:34;10.77;;;7.47;;
61096;SDS011;46977;50.936;6.908;2022-12-18T15:33:37;12.90;;;8.35;;
61096;SDS011;46977;50.936;6.908;2022-12-18T15:36:41;13.38;;;8.73;;
61096;SDS011;46977;50.936;6.908;2022-12-18T15:39:43;12.38;;;8.40;;
61096;SDS011;46977;50.936;6.908;2022-12-18T15:42:46;11.23;;;9.10;;
61096;SDS011;46977;50.936;6.908;2022-12-18T15:46:11;13.13;;;9.85;;
61096;SDS011;46977;50.936;6.908;2022-12-18T15:49:15;11.10;;;7.40;;
61096;SDS011;46977;50.936;6.908;2022-12-18T15:52:17;11.73;;;7.30;;
61096;SDS011;46977;50.936;6.908;2022-12-18T15:55:27;14.07;;;8.85;;
61096;SDS011;46977;50.936;6.908;2022-12-18T15:58:51;12.02;;;8.80;;
61096;SDS011;46977;50.936;6.908;2022-12-18T16:01:58;9.55;;;7.05;;
61096;SDS011;46977;50.936;6.908;2022-12-18T16:05:01;12.15;;;8.10;;
61096;SDS011;46977;50.936;6.908;2022-12-18T16:08:03;12.48;;;7.63;;
61096;SDS011;46977;50.936;6.908;2022-12-18T16:11:08;12.68;;;7.90;;
61096;SDS011;46977;50.936;6.908;2022-12-18T16:14:16;12.48;;;8.32;;
61096;SDS011;46977;50.936;6.908;2022-12-18T16:17:21;11.40;;;7.47;;
61096;SDS011;46977;50.936;6.908;2022-12-18T16:20:23;15.45;;;9.82;;
61096;SDS011;46977;50.936;6.908;2022-12-18T16:23:26;13.20;;;8.07;;
61096;SDS011;46977;50.936;6.908;2022-12-18T16:26:29;13.68;;;8.65;;
61096;SDS011;46977;50.936;6.908;2022-12-18T16:29:31;16.70;;;12.73;;
61096;SDS011;46977;50.936;6.908;2022-12-18T16:32:36;16.25;;;10.52;;
61096;SDS011;46977;50.936;6.908;2022-12-18T16:35:38;14.10;;;9.57;;
61096;SDS011;46977;50.936;6.908;2022-12-18T16:38:41;14.60;;;9.15;;
61096;SDS011;46977;50.936;6.908;2022-12-18T16:41:43;15.05;;;7.97;;
61096;SDS011;46977;50.936;6.908;2022-12-18T16:44:46;12.90;;;9.20;;
61096;SDS011;46977;50.936;6.908;2022-12-18T16:47:51;14.07;;;9.45;;
61096;SDS011;46977;50.936;6.908;2022-12-18T16:50:54;11.85;;;7.10;;
61096;SDS011;46977;50.936;6.908;2022-12-18T16:54:03;16.60;;;9.93;;
61096;SDS011;46977;50.936;6.908;2022-12-18T16:57:12;13.32;;;8.20;;
61096;SDS011;46977;50.936;6.908;2022-12-18T17:00:16;15.18;;;9.70;;
61096;SDS011;46977;50.936;6.908;2022-12-18T17:03:20;12.40;;;10.15;;
61096;SDS011;46977;50.936;6.908;2022-12-18T17:06:23;18.17;;;10.80;;
61096;SDS011;46977;50.936;6.908;2022-12-18T17:09:26;12.10;;;9.05;;
61096;SDS011;46977;50.936;6.908;2022-12-18T17:12:29;14.63;;;7.63;;
61096;SDS011;46977;50.936;6.908;2022-12-18T17:15:33;12.45;;;10.02;;
61096;SDS011;46977;50.936;6.908;2022-12-18T17:18:37;15.70;;;8.73;;
61096;SDS011;46977;50.936;6.908;2022-12-18T17:21:39;15.05;;;10.00;;
61096;SDS011;46977;50.936;6.908;2022-12-18T17:24:42;16.42;;;9.43;;
61096;SDS011;46977;50.936;6.908;2022-12-18T17:27:44;10.68;;;8.82;;
61096;SDS011;46977;50.936;6.908;2022-12-18T17:30:46;15.63;;;10.13;;
61096;SDS011;46977;50.936;6.908;2022-12-18T17:33:50;15.10;;;10.07;;
61096;SDS011;46977;50.936;6.908;2022-12-18T17:36:53;16.90;;;10.82;;
61096;SDS011;46977;50.936;6.908;2022-12-18T17:39:56;13.63;;;8.93;;
61096;SDS011;46977;50.936;6.908;2022-12-18T17:42:58;17.23;;;9.73;;
61096;SDS011;46977;50.936;6.908;2022-12-18T17:46:01;14.30;;;9.52;;
61096;SDS011;46977;50.936;6.908;2022-12-18T17:49:06;13.88;;;9.85;;
61096;SDS011;46977;50.936;6.908;2022-12-18T17:52:09;13.20;;;10.30;;
61096;SDS011;46977;50.936;6.908;2022-12-18T17:55:12;15.10;;;9.48;;
61096;SDS011;46977;50.936;6.908;2022-12-18T17:58:14;13.95;;;9.40;;
61096;SDS011;46977;50.936;6.908;2022-12-18T18:01:17;15.57;;;10.35;;
61096;SDS011;46977;50.936;6.908;2022-12-18T18:04:23;14.07;;;10.32;;
61096;SDS011;46977;50.936;6.908;2022-12-18T18:07:26;15.35;;;10.23;;
61096;SDS011;46977;50.936;6.908;2022-12-18T18:10:28;17.25;;;10.73;;
61096;SDS011;46977;50.936;6.908;2022-12-18T18:13:32;15.35;;;10.60;;
61096;SDS011;46977;50.936;6.908;2022-12-18T18:16:54;11.85;;;7.65;;
61096;SDS011;46977;50.936;6.908;2022-12-18T18:19:59;16.67;;;9.88;;
61096;SDS011;46977;50.936;6.908;2022-12-18T18:23:01;17.15;;;9.93;;
61096;SDS011;46977;50.936;6.908;2022-12-18T18:26:04;14.18;;;9.75;;
61096;SDS011;46977;50.936;6.908;2022-12-18T18:29:08;14.57;;;9.60;;
61096;SDS011;46977;50.936;6.908;2022-12-18T18:32:13;14.02;;;8.63;;
61096;SDS011;46977;50.936;6.908;2022-12-18T18:35:17;18.85;;;11.70;;
61096;SDS011;46977;50.936;6.908;2022-12-18T18:38:39;15.15;;;8.95;;